Inez, TX (77968)

10:54 AM CDT on September 27, 2016 (GMT -0500)
Post Oak Estates | | Change Station

Elev 85 ft 28.89 °N, 96.84 °W | Updated 29 seconds ago

Mostly Cloudy
Mostly Cloudy
76.6 °F
Feels Like 78 °F
N
3.6
Wind Variable Wind from NNE
Gusts 7.4 mph

Today
High -- | Low -- °F
--% Chance of Precip.
Yesterday
High -- | Low -- °F
Precip. -- in
Pressure 30.06 in
Visibility 10.0 miles
Clouds Mostly Cloudy 1500 ft
Heat Index 78 °F
Dew Point 68 °F
Humidity 74%
Rainfall 0.00 in
Snow Depth Not available.
7:18 AM 7:17 PM
Waning Crescent, 11% visible
METAR KVCT 271551Z 36008KT 10SM BKN015 26/21 A3006 RMK AO2 SLP179 T02560206
Pressure 30.06 in
Visibility 10.0 miles
Clouds Mostly Cloudy 1500 ft
Heat Index 78 °F
Dew Point 68 °F
Humidity 74%
Rainfall 0.00 in
Snow Depth Not available.
7:18 AM 7:17 PM
Waning Crescent, 11% visible
METAR KVCT 271551Z 36008KT 10SM BKN015 26/21 A3006 RMK AO2 SLP179 T02560206

10-Day Weather Forecast

Almanac

Astronomy

Sep. 27, 2016 Rise Set
Actual Time
Civil Twilight
Nautical Twilight
Astronomical Twilight
Moon
Length of Visible Light
Length of Day
Tomorrow will be .
, % of the Moon is Illuminated

Today's Extremes

State Highs State Lows

Community

WunderPhotos

Upload Photos

1,942,115 photos uploaded!

WunderBlog® & News

Nearby

Air Quality

  Air Quality AQ Index Pollutant
Not available.

Snow Depth

Station Depth Elevation

Earthquake Activity

City Distance Mag. Time & Date
Minimum magnitude displayed is 2.5.

Coastal Water Temperatures

Place Temperature

Stations

Nearby Weather Stations

Station Location Temp. Windchill Dew Point Humidity Wind Precip. Elev Updated Type
                   

Watches & Warnings

There are currently no watches in effect.